Station info - map view · info · telemetry · weather · raw · status · beacons · messages · bulletins · browse · moving · my account
Callsign, ship name or locator: Clear       
It is possible to search using wildcards (*?) after a prefix. Example: OH*
APRS station JA5LUA-9 - show graphs
Map loading...
Comment: U2APRS 433.00MHz Call me
Location: 34°19.23' N 134°04.72' E - locator PM74AH96KW - show map - static map
2.4 miles Southeast bearing 124° from Takamatsu-shi, Kagawa, Japan [?]
5.4 miles West bearing 268° from Shido, Kagawa, Japan
24.9 miles South bearing 161° from Okayama-shi, Okayama, Japan
67.9 miles West bearing 248° from Kōbe-shi, Hyōgo, Japan
Last position: 2019-01-02 01:22:11 EST (19d 43m ago)
2019-01-02 15:22:11 JST local time at Takamatsu-shi, Japan [?]
Altitude: 131 ft
Course: 194°
Speed: 6 MPH
Device: JA7UDE: U2APRS (app, Android)
Last path: JA5LUA-9>APDU83 via TCPIP*,qAC,T2HAKATA
Positions stored: 4805
Other SSIDs: JA5LUA-12 JA5LUA-5
Stations near current position of JA5LUA-9 - show more
callsign distance last heard - EST      callsign distance last heard - EST
JA5LUA-1226.8 yards 220°2018-12-29 16:49:31 JA5IQN-121.3 miles 269°2018-12-29 01:52:03
JR5MJL-121.5 miles 305°2019-01-19 22:14:08 JA5FDG-121.5 miles 306°2019-01-20 03:20:55
JA5FFO-51.8 miles 37°2019-01-11 06:32:19 JA5UJT-101.9 miles 289°2019-01-21 01:43:39
JN1BWK-91.9 miles 218°2019-01-20 04:51:55 JA5FXJ-121.9 miles 319°2019-01-20 18:33:10
JA5UJT-91.9 miles 289°2019-01-21 02:00:32 JG5WUN-122.1 miles 353°2019-01-20 17:50:55
JA5EXN-92.1 miles 300°2019-01-20 04:10:28 JG5GUT2.2 miles 324°2019-01-15 10:42:23
JG5GUT-52.2 miles 324°2019-01-13 00:20:04 JJ5MMS2.2 miles 333°2019-01-19 23:46:36
JA5WWD2.2 miles 334°2019-01-20 17:10:06 JA5FDG-72.3 miles 309°2019-01-20 17:46:53
JA5FDG-52.4 miles 311°2019-01-18 01:37:13 JP5YCN-I2.4 miles 306°2019-01-21 02:04:40
JA5IQN-72.4 miles 310°2019-01-20 17:52:00 JA5EXN-12.5 miles 312°2019-01-21 01:53:38
Stations which heard JA5LUA-9 directly on radio –
callsign pkts first heard - EST last heard longest (tx => rx) longest at - EST
JA1KWV-1 4 2019-01-01 03:15:58 2019-01-01 03:50:31 PM96TA > PM95TR 22.4 miles 173° 2019-01-01 03:15:58
JS1RMZ-1 1 2019-01-01 03:57:41 2019-01-01 03:57:41 PM95PR > PM95QQ 6.7 miles 110° 2019-01-01 03:57:41
JN1NVQ 20 2019-01-01 02:04:10 2019-01-01 03:11:48 PM96XB > PM96UE 16.7 miles 299° 2019-01-01 02:04:10
JA1YKX-1 6 2019-01-01 03:24:24 2019-01-01 04:35:19 PM95RX > PM95SM 33.1 miles 174° 2019-01-01 03:24:24
JN3PHH-3 2 2019-01-01 19:42:44 2019-01-01 19:49:38 PM85DD > PM75QM 57.9 miles 299° 2019-01-01 19:49:38
JH7USP 1 2018-12-31 21:48:22 2018-12-31 21:48:22 QM08LG > QM07AX 54.3 miles 249° 2018-12-31 21:48:22
JK2KNR-10 12 2019-01-01 18:31:27 2019-01-01 19:13:58 PM85GH > PM85MF 28.1 miles 100° 2019-01-01 19:13:58
JH9YVE-3 2 2019-01-01 19:41:32 2019-01-01 20:10:17 PM85AA > PM75UN 41.0 miles 335° 2019-01-01 20:10:17
JR2TER-10 31 2019-01-01 16:49:58 2019-01-01 18:18:49 PM94BS > PM84PT 46.1 miles 276° 2019-01-01 16:49:58
JE4YKB-13 2 2019-01-01 04:10:14 2019-01-01 04:22:42 PM95PO > PM95SJ 20.0 miles 137° 2019-01-01 04:10:14
JA2YQQ-3 3 2019-01-01 05:21:52 2019-01-01 15:58:32 PM95HD > PM94NX 31.3 miles 115° 2019-01-01 15:58:32
JA2YEP-1 1 2019-01-01 20:10:41 2019-01-01 20:10:41 PM85BB > PM84GV 23.1 miles 118° 2019-01-01 20:10:41
JM1YTY-3 33 2019-01-01 02:05:41 2019-01-01 16:38:51 PM94DT > PM95WC 94.2 miles 77° 2019-01-01 16:38:51
JO7CHC-3 5 2018-12-31 20:24:28 2018-12-31 20:42:24 QM08PL > QM08JW 39.6 miles 321° 2018-12-31 20:42:24
JO2OKP-10 9 2019-01-01 18:02:45 2019-01-01 18:26:04 PM85MD > PM84OW 16.3 miles 159° 2019-01-01 18:26:04
JI3YVA-1 23 2019-01-01 21:37:17 2019-01-02 00:29:03 PM74CH > PM74IT 45.3 miles 41° 2019-01-02 00:29:03
JP7DKH-1 76 2018-12-31 19:39:30 2019-01-01 01:55:12 QM08ST > QM07KF 117.2 miles 199° 2018-12-31 19:39:30
JH3YBD-1 12 2019-01-01 21:46:37 2019-01-02 00:38:09 PM74AH > PM75HD 65.9 miles 30° 2019-01-02 00:38:09
JJ2YJG-1 36 2019-01-01 15:40:30 2019-01-01 17:24:01 PM84TS > PM95DB 42.9 miles 62° 2019-01-01 17:24:01
JA4UNI-1 3 2019-01-01 23:27:05 2019-01-02 00:12:18 PM74IH > PM75CD 65.5 miles 332° 2019-01-01 23:27:05
JA7DNO-10 14 2018-12-31 21:08:51 2018-12-31 22:07:31 QM08KC > QM08KH 16.0 miles 353° 2018-12-31 22:07:31
JG3FYW-10 3 2019-01-01 20:30:31 2019-01-01 20:40:34 PM74UW > PM75UA 7.1 miles 9° 2019-01-01 20:40:34
JM1YUK-3 1 2019-01-01 04:07:15 2019-01-01 04:07:15 PM95PP > QM05AC 56.2 miles 129° 2019-01-01 04:07:15
JA3TMM-10 1 2019-01-01 23:05:03 2019-01-01 23:05:03 PM74KL > PM74HU 29.1 miles 326° 2019-01-01 23:05:03
JM1YTU-3 6 2019-01-01 01:56:36 2019-01-01 05:19:14 PM95LH > QM05CL 71.2 miles 81° 2019-01-01 05:19:14
JA2GSV-1 4 2019-01-01 16:12:35 2019-01-01 16:17:19 PM95FB > PM95FA 4.4 miles 233° 2019-01-01 16:12:35
JK1JXY-1 3 2019-01-01 00:47:59 2019-01-01 01:12:49 QM06FJ > QM06HN 15.8 miles 49° 2019-01-01 01:12:49
JA4YYF-1 5 2019-01-01 23:00:31 2019-01-02 00:23:26 PM74KM > PM64RX 86.7 miles 292° 2019-01-01 23:01:05
JQ1ZEG-10 4 2019-01-01 04:19:12 2019-01-01 04:33:49 PM95PJ > PM95RN 11.9 miles 36° 2019-01-01 04:33:49
JO1YLU-3 9 2019-01-01 01:58:40 2019-01-01 15:26:44 PM96VC > PM95XG 58.6 miles 169° 2019-01-01 02:25:19
JL7OTC-10 9 2018-12-31 21:56:24 2018-12-31 22:17:25 QM08LE > QM08JB 13.5 miles 227° 2018-12-31 21:56:24
JL3ZAY-13 9 2019-01-01 23:06:33 2019-01-01 23:25:56 PM74KL > PM74KI 9.1 miles 178° 2019-01-01 23:06:33
JJ2YMH-10 6 2019-01-01 18:39:51 2019-01-01 18:52:04 PM85LG > PM85KE 7.8 miles 225° 2019-01-01 18:39:51
JA3BQI-1 3 2019-01-01 20:23:16 2019-01-01 20:35:51 PM74WX > PM75VA 7.3 miles 290° 2019-01-01 20:23:16
JJ2YFK-1 1 2019-01-01 18:21:19 2019-01-01 18:21:19 PM85NC > PM84PQ 29.4 miles 160° 2019-01-01 18:21:19
JQ1ZAB-1 2 2019-01-01 01:45:03 2019-01-01 01:58:06 QM06AB > QM05FV 26.1 miles 116° 2019-01-01 01:58:06
7M1JBF-10 15 2019-01-01 00:07:32 2019-01-01 00:44:28 QM06IP > QM06IR 6.9 miles 19° 2019-01-01 00:44:28
JI2CNH-10 2 2019-01-01 19:59:12 2019-01-01 20:04:47 PM85BB > PM84FV 20.8 miles 119° 2019-01-01 20:04:47
JP2MRD-1 2 2019-01-01 17:59:41 2019-01-01 18:12:03 PM84PV > PM85LC 22.0 miles 309° 2019-01-01 17:59:41
JG1LPN-10 2 2019-01-01 03:22:12 2019-01-01 03:24:54 PM96SA > PM96QB 8.1 miles 297° 2019-01-01 03:22:12
JA3MZJ-10 1 2019-01-01 23:03:10 2019-01-01 23:03:10 PM74KM > PM74JT 20.5 miles 347° 2019-01-01 23:03:10
JR5YEP-10 10 2019-01-01 23:44:08 2019-01-02 00:11:16 PM74HF > PM74FD 12.1 miles 238° 2019-01-01 23:44:08
JA5FUC-10 8 2019-01-01 23:32:27 2019-01-01 23:56:34 PM74IG > PM74GB 15.0 miles 208° 2019-01-01 23:32:27
JR5YEM-10 10 2019-01-01 23:41:08 2019-01-02 00:51:55 PM74AH > PM74ED 21.2 miles 121° 2019-01-02 00:51:55
JR5CFK 5 2019-01-02 00:21:48 2019-01-02 00:46:24 PM74DG > PM74BG 8.3 miles 274° 2019-01-02 00:21:48
JP3PYY-10 2 2019-01-01 21:44:04 2019-01-01 21:47:28 PM74QR > PM74VP 26.1 miles 100° 2019-01-01 21:47:28
JQ1ZAB-10 1 2019-01-01 01:42:53 2019-01-01 01:42:53 QM06CC > QM05GV 24.8 miles 131° 2019-01-01 01:42:53
JH1WUX-1 2 2019-01-01 03:22:47 2019-01-01 03:53:18 PM95PS > PM95TU 19.2 miles 72° 2019-01-01 03:53:18
JI1UWB-10 1 2019-01-01 02:33:04 2019-01-01 02:33:04 PM96UB > PM95US 18.6 miles 171° 2019-01-01 02:33:04
JE2KDQ-3 2 2019-01-01 17:45:32 2019-01-01 17:56:39 PM84PU > PM84QU 6.0 miles 112° 2019-01-01 17:56:39
JR5YFF-10 1 2019-01-02 00:26:28 2019-01-02 00:26:28 PM74CH > PM74CA 19.2 miles 185° 2019-01-02 00:26:28
JI1SZR-10 2 2019-01-01 01:30:47 2019-01-01 01:44:19 QM06DF > QM06AN 27.1 miles 324° 2019-01-01 01:44:19
7L4VOH-10 8 2019-01-01 03:22:53 2019-01-01 05:21:35 CM05LI > PM95IM 4473.3 miles 297° 2019-01-01 04:57:56
JE7ZEH-10 2 2018-12-31 23:42:04 2018-12-31 23:45:21 QM07KB > QM07KA 2.1 miles 160° 2018-12-31 23:42:04
JJ2IIZ-10 2 2019-01-01 18:24:44 2019-01-01 18:53:34 PM85ND > PM84HX 27.7 miles 250° 2019-01-01 18:24:44
JQ1YWA-10 6 2019-01-01 03:31:49 2019-01-01 04:05:40 PM95QW > PM95QR 15.1 miles 196° 2019-01-01 03:31:49
JM1CZS-10 6 2019-01-01 00:51:53 2019-01-01 02:22:31 PM96VC > QM06GI 48.5 miles 68° 2019-01-01 02:22:31
JQ1YJC-1 1 2019-01-01 01:11:57 2019-01-01 01:11:57 QM06FK > QM06GI 8.2 miles 112° 2019-01-01 01:11:57
JJ2YMF-1 2 2019-01-01 18:28:07 2019-01-01 19:04:11 PM85MD > PM85HC 22.7 miles 261° 2019-01-01 18:28:07

Only position packets which were originated by the station are shown here. The range statistics show some extra long hops, because some digipeaters do not correctly add themselves to the digipeater path. Please check the raw packets.
About this site
This page shows real-time information collected from the Automatic Position Reporting System Internet network (APRS-IS). APRS is used by amateur (ham) radio operators to transmit real-time position information, weather data, telemetry and messages over the radio. A vehicle equipped with a GPS receiver, a VHF transmitter or HF transceiver and a small computer device called a tracker transmits it's location, speed and course in a small data packet, which is then received by a nearby iGate receiving site which forwards the packet on the Internet. Systems connected to the Internet can send information on the APRS-IS without a radio transmitter, or collect and display information transmitted anywhere in the world.
FAQ · Blog · Discussion group · Linking to aprs.fi · AIS sites · Service status · Database statistics · Advertising on aprs.fi · Technical details · API · Change log · Planned changes · Credits and thanks · Terms Of Service · iPhone/iPad APRS